createdAt,value
2023-12-05T00:01:34.166Z,1.44
2023-12-05T00:04:02.576Z,1.21
2023-12-05T00:06:30.781Z,1.29
2023-12-05T00:08:58.942Z,1.20
2023-12-05T00:11:28.739Z,1.22
2023-12-05T00:13:57.402Z,1.11
2023-12-05T00:16:25.401Z,1.28
2023-12-05T00:18:53.501Z,1.34
2023-12-05T00:21:21.876Z,1.39
2023-12-05T00:23:49.905Z,1.23
2023-12-05T00:26:17.904Z,1.22
2023-12-05T00:28:46.124Z,1.07
2023-12-05T00:31:14.559Z,0.97
2023-12-05T00:33:42.855Z,1.16
2023-12-05T00:36:11.686Z,1.07
2023-12-05T00:38:39.788Z,1.04
2023-12-05T00:41:09.149Z,1.22
2023-12-05T00:43:37.870Z,1.46
2023-12-05T00:46:06.143Z,1.48
2023-12-05T00:48:34.498Z,1.35
2023-12-05T00:51:02.743Z,1.37
2023-12-05T00:53:30.834Z,1.48
2023-12-05T00:55:59.203Z,1.47
2023-12-05T00:58:27.239Z,1.52
2023-12-05T01:00:55.519Z,1.55
2023-12-05T01:03:23.713Z,1.60
2023-12-05T01:05:52.044Z,1.75
2023-12-05T01:08:20.146Z,1.57
2023-12-05T01:10:48.264Z,1.50
2023-12-05T01:13:16.702Z,1.52
2023-12-05T01:15:44.967Z,1.47
2023-12-05T01:18:13.354Z,1.38
2023-12-05T01:20:41.628Z,1.19
2023-12-05T01:23:09.751Z,1.14
2023-12-05T01:25:38.074Z,1.11
2023-12-05T01:28:06.359Z,1.22
2023-12-05T01:30:34.477Z,1.09
2023-12-05T01:33:02.720Z,0.89
2023-12-05T01:35:30.776Z,0.90
2023-12-05T01:37:58.753Z,0.93
2023-12-05T01:40:27.185Z,1.02
2023-12-05T01:42:55.361Z,1.10
2023-12-05T01:45:23.703Z,1.11
2023-12-05T01:47:51.940Z,1.16
2023-12-05T01:50:23.012Z,1.21
2023-12-05T01:52:53.376Z,1.29
2023-12-05T01:55:23.128Z,1.28
2023-12-05T01:57:53.184Z,1.34
2023-12-05T02:00:21.733Z,1.32
2023-12-05T02:02:50.223Z,1.47
2023-12-05T02:05:18.516Z,1.48
2023-12-05T02:07:47.304Z,1.55
2023-12-05T02:10:15.359Z,1.56
2023-12-05T02:12:43.665Z,1.69
2023-12-05T02:15:11.842Z,1.66
2023-12-05T02:17:52.279Z,1.65
2023-12-05T02:20:20.484Z,1.81
2023-12-05T02:23:03.831Z,1.85
2023-12-05T02:25:37.873Z,1.90
2023-12-05T02:28:06.255Z,1.94
2023-12-05T02:30:34.397Z,2.15
2023-12-05T02:33:02.653Z,2.17
2023-12-05T02:35:31.601Z,2.29
2023-12-05T02:38:18.421Z,2.41
2023-12-05T02:41:19.047Z,2.56
2023-12-05T02:43:49.693Z,2.43
2023-12-05T02:46:18.985Z,2.20
2023-12-05T02:48:48.421Z,1.97
2023-12-05T02:51:18.426Z,1.98
2023-12-05T02:53:47.582Z,2.12
2023-12-05T02:56:16.169Z,2.17
2023-12-05T02:58:44.336Z,1.97
2023-12-05T03:01:12.305Z,1.77
2023-12-05T03:03:40.482Z,1.72
2023-12-05T03:06:08.683Z,1.71
2023-12-05T03:08:36.821Z,1.77
2023-12-05T03:11:09.588Z,1.80
2023-12-05T03:13:41.489Z,1.72
2023-12-05T03:16:09.853Z,1.64
2023-12-05T03:18:38.124Z,1.65
2023-12-05T03:21:06.991Z,1.77
2023-12-05T03:23:35.252Z,1.86
2023-12-05T03:26:03.558Z,1.73
2023-12-05T03:28:31.556Z,1.49
2023-12-05T03:30:59.667Z,1.44
2023-12-05T03:33:27.768Z,1.60
2023-12-05T03:35:55.763Z,1.70
2023-12-05T03:38:24.029Z,1.64
2023-12-05T03:40:52.165Z,1.24
2023-12-05T03:43:20.158Z,1.24
2023-12-05T03:45:48.428Z,1.12
2023-12-05T03:48:16.652Z,1.31
2023-12-05T03:50:44.746Z,1.41
2023-12-05T03:53:12.820Z,1.71
2023-12-05T03:55:40.823Z,1.86
2023-12-05T03:58:08.769Z,1.89
2023-12-05T04:00:37.223Z,1.88
2023-12-05T04:03:05.326Z,1.85
2023-12-05T04:05:33.477Z,1.81
2023-12-05T04:08:01.559Z,1.98
2023-12-05T04:10:29.648Z,2.21
2023-12-05T04:12:57.939Z,2.49
2023-12-05T04:15:26.165Z,2.62
2023-12-05T04:17:54.562Z,2.62
2023-12-05T04:20:23.067Z,2.57
2023-12-05T04:22:51.201Z,2.40
2023-12-05T04:25:19.197Z,2.25
2023-12-05T04:27:47.310Z,1.82
2023-12-05T04:30:15.881Z,1.48
2023-12-05T04:32:44.016Z,1.73
2023-12-05T04:35:12.080Z,1.88
2023-12-05T04:37:41.427Z,2.00
2023-12-05T04:40:11.264Z,2.10
2023-12-05T04:42:40.109Z,2.43
2023-12-05T04:45:08.640Z,2.95
2023-12-05T04:47:37.312Z,3.25
2023-12-05T04:50:06.610Z,3.40
2023-12-05T04:52:35.218Z,3.46
2023-12-05T04:55:03.585Z,3.54
2023-12-05T04:57:31.629Z,3.71
2023-12-05T04:59:59.776Z,3.79
2023-12-05T05:02:27.769Z,3.73
2023-12-05T05:04:56.014Z,3.82
2023-12-05T05:07:24.129Z,3.99
2023-12-05T05:09:53.377Z,4.20
2023-12-05T05:12:21.568Z,4.20
2023-12-05T05:14:49.708Z,4.20
2023-12-05T05:17:17.869Z,4.06
2023-12-05T05:19:45.978Z,3.74
2023-12-05T05:22:14.177Z,3.41
2023-12-05T05:24:42.435Z,3.46
2023-12-05T05:27:13.021Z,3.63
2023-12-05T05:29:41.305Z,3.81
2023-12-05T05:32:09.575Z,4.02
2023-12-05T05:34:37.604Z,4.06
2023-12-05T05:37:05.883Z,4.23
2023-12-05T05:39:35.004Z,4.21
2023-12-05T05:42:03.812Z,4.24
2023-12-05T05:44:31.918Z,4.16
2023-12-05T05:47:00.054Z,4.20
2023-12-05T05:49:28.431Z,4.24
2023-12-05T05:51:56.704Z,4.24
2023-12-05T05:54:24.915Z,4.10
2023-12-05T05:56:53.270Z,3.99
2023-12-05T05:59:21.541Z,4.09
2023-12-05T06:01:49.842Z,4.13
2023-12-05T06:04:18.044Z,4.28
2023-12-05T06:06:46.151Z,4.28
2023-12-05T06:09:14.160Z,4.23
2023-12-05T06:11:43.444Z,4.07
2023-12-05T06:14:11.402Z,3.71
2023-12-05T06:16:39.694Z,3.53
2023-12-05T06:19:07.693Z,3.41
2023-12-05T06:21:35.732Z,3.16
2023-12-05T06:24:03.793Z,3.12
2023-12-05T06:26:31.975Z,3.18
2023-12-05T06:29:00.217Z,3.28
2023-12-05T06:31:28.445Z,3.49
2023-12-05T06:33:57.014Z,3.78
2023-12-05T06:36:25.082Z,4.03
2023-12-05T06:38:53.100Z,4.21
2023-12-05T06:41:21.137Z,4.14
2023-12-05T06:43:49.346Z,4.01
2023-12-05T06:46:17.498Z,4.02
2023-12-05T06:48:45.646Z,3.94
2023-12-05T06:51:20.202Z,3.93
2023-12-05T06:53:51.154Z,3.81
2023-12-05T06:56:21.281Z,3.70
2023-12-05T06:58:49.367Z,3.57
2023-12-05T07:01:18.788Z,3.50
2023-12-05T07:03:51.328Z,3.54
2023-12-05T07:06:25.125Z,3.66
2023-12-05T07:08:53.478Z,3.79
2023-12-05T07:11:21.522Z,4.01
2023-12-05T07:13:49.732Z,4.29
2023-12-05T07:16:17.827Z,4.43
2023-12-05T07:18:46.212Z,4.75
2023-12-05T07:21:14.976Z,5.05
2023-12-05T07:23:46.679Z,5.18
2023-12-05T07:26:17.806Z,5.31
2023-12-05T07:28:47.162Z,5.19
2023-12-05T07:31:15.199Z,5.14
2023-12-05T07:33:43.412Z,5.31
2023-12-05T07:36:12.065Z,5.24
2023-12-05T07:38:40.312Z,5.04
2023-12-05T07:41:17.740Z,5.04
2023-12-05T07:43:45.865Z,5.04
2023-12-05T07:46:13.875Z,5.01
2023-12-05T07:48:42.458Z,5.17
2023-12-05T07:51:15.174Z,5.19
2023-12-05T07:53:44.077Z,5.13
2023-12-05T07:56:12.635Z,5.08
2023-12-05T07:58:40.785Z,5.06
2023-12-05T08:01:09.114Z,4.98
2023-12-05T08:03:37.449Z,4.87
2023-12-05T08:06:08.531Z,4.73
2023-12-05T08:08:36.864Z,4.60
2023-12-05T08:11:05.169Z,4.57
2023-12-05T08:13:33.243Z,4.57
2023-12-05T08:16:01.513Z,4.60
2023-12-05T08:18:29.741Z,4.76
2023-12-05T08:20:58.192Z,4.90
2023-12-05T08:23:26.419Z,4.83
2023-12-05T08:25:54.385Z,4.89
2023-12-05T08:28:23.625Z,5.04
2023-12-05T08:30:51.722Z,5.18
2023-12-05T08:33:20.212Z,5.38
2023-12-05T08:35:48.581Z,5.47
2023-12-05T08:38:16.598Z,5.54
2023-12-05T08:40:44.736Z,5.54
2023-12-05T08:43:12.811Z,5.51
2023-12-05T08:45:40.920Z,5.50
2023-12-05T08:48:09.066Z,5.55
2023-12-05T08:50:37.598Z,5.75
2023-12-05T08:53:05.590Z,5.79
2023-12-05T08:55:33.743Z,5.74
2023-12-05T08:58:01.868Z,5.52
2023-12-05T09:00:30.071Z,5.51
2023-12-05T09:03:00.511Z,5.55
2023-12-05T09:05:28.720Z,5.71
2023-12-05T09:07:58.173Z,5.62
2023-12-05T09:10:27.317Z,5.43
2023-12-05T09:12:55.449Z,5.41
2023-12-05T09:15:23.836Z,5.31
2023-12-05T09:17:54.234Z,5.17
2023-12-05T09:20:22.421Z,5.20
2023-12-05T09:22:53.641Z,5.45
2023-12-05T09:25:23.980Z,5.58
2023-12-05T09:27:52.056Z,5.51
2023-12-05T09:30:20.284Z,5.37
2023-12-05T09:32:48.576Z,5.46
2023-12-05T09:35:16.637Z,5.56
2023-12-05T09:37:44.704Z,5.66
2023-12-05T09:40:13.315Z,5.81
2023-12-05T09:42:46.193Z,5.88
2023-12-05T09:45:18.719Z,5.95
2023-12-05T09:47:47.617Z,5.97
2023-12-05T09:50:17.427Z,6.13
2023-12-05T09:52:45.765Z,6.18
2023-12-05T09:55:14.080Z,6.36
2023-12-05T09:57:42.454Z,6.71
2023-12-05T10:00:10.964Z,6.83
2023-12-05T10:02:43.044Z,6.74
2023-12-05T10:05:13.597Z,7.00
2023-12-05T10:07:42.228Z,7.08
2023-12-05T10:10:11.475Z,7.15
2023-12-05T10:12:39.820Z,7.24
2023-12-05T10:15:09.189Z,7.30
2023-12-05T10:17:37.451Z,7.46
2023-12-05T10:20:06.162Z,7.50
2023-12-05T10:22:34.664Z,7.47
2023-12-05T10:25:02.922Z,7.42
2023-12-05T10:27:31.014Z,7.39
2023-12-05T10:29:59.034Z,7.42
2023-12-05T10:32:28.866Z,7.49
2023-12-05T10:34:58.246Z,7.59
2023-12-05T10:37:27.523Z,7.66
2023-12-05T10:39:57.225Z,7.90
2023-12-05T10:42:31.875Z,7.89
2023-12-05T10:45:06.330Z,7.79
2023-12-05T10:47:35.329Z,7.69
2023-12-05T10:50:04.574Z,7.51
2023-12-05T10:52:34.765Z,7.67
2023-12-05T10:55:02.896Z,7.71
2023-12-05T10:57:32.212Z,7.42
2023-12-05T11:00:01.130Z,7.17
2023-12-05T11:02:30.022Z,7.24
2023-12-05T11:04:58.421Z,7.33
2023-12-05T11:07:26.682Z,7.40
2023-12-05T11:09:55.849Z,7.56
2023-12-05T11:12:24.298Z,7.73
2023-12-05T11:14:54.037Z,7.78
2023-12-05T11:17:28.633Z,7.58
2023-12-05T11:20:12.768Z,7.44
2023-12-05T11:22:46.967Z,7.41
2023-12-05T11:25:18.208Z,7.36
2023-12-05T11:28:07.243Z,7.41
2023-12-05T11:30:35.403Z,7.49
2023-12-05T11:33:16.318Z,7.59
2023-12-05T11:35:49.001Z,7.70
2023-12-05T11:38:21.108Z,7.61
2023-12-05T11:41:08.399Z,7.57
2023-12-05T11:43:36.533Z,7.63
2023-12-05T11:46:05.046Z,7.84
2023-12-05T11:48:35.155Z,8.03
2023-12-05T11:51:03.917Z,7.98
2023-12-05T11:53:32.144Z,7.91
2023-12-05T11:56:00.436Z,7.97
2023-12-05T11:58:31.824Z,8.06
2023-12-05T12:01:06.602Z,8.12
2023-12-05T12:03:54.906Z,8.39
2023-12-05T12:06:25.257Z,8.53
2023-12-05T12:08:57.774Z,8.42
2023-12-05T12:11:25.896Z,8.32
2023-12-05T12:13:54.023Z,8.29
2023-12-05T12:16:22.584Z,8.29
2023-12-05T12:18:54.387Z,8.39
2023-12-05T12:21:30.116Z,8.47
2023-12-05T12:23:59.838Z,8.55
2023-12-05T12:26:33.328Z,8.74
2023-12-05T12:29:08.221Z,8.84
2023-12-05T12:31:40.181Z,8.93
2023-12-05T12:34:09.705Z,9.05
2023-12-05T12:36:39.633Z,9.10
2023-12-05T12:39:08.715Z,9.00
2023-12-05T12:41:37.917Z,9.09
2023-12-05T12:44:07.049Z,9.05
2023-12-05T12:46:35.615Z,8.87
2023-12-05T12:49:05.816Z,8.64
2023-12-05T12:51:35.555Z,8.54
2023-12-05T12:54:04.535Z,8.47
2023-12-05T12:56:36.612Z,8.40
2023-12-05T12:59:04.672Z,8.36
2023-12-05T13:01:34.683Z,8.42
2023-12-05T13:04:03.086Z,8.44
2023-12-05T13:06:38.622Z,8.42
2023-12-05T13:09:14.248Z,8.31
2023-12-05T13:11:45.798Z,8.29
2023-12-05T13:14:15.312Z,8.20
2023-12-05T13:16:43.992Z,8.14
2023-12-05T13:19:25.563Z,8.16
2023-12-05T13:21:53.879Z,8.13
2023-12-05T13:24:22.989Z,8.12
2023-12-05T13:26:51.908Z,8.20
2023-12-05T13:29:20.427Z,8.31
2023-12-05T13:31:48.709Z,8.49
2023-12-05T13:34:17.406Z,8.62
2023-12-05T13:36:46.125Z,8.61
2023-12-05T13:39:16.930Z,8.52
2023-12-05T13:41:45.225Z,8.40
2023-12-05T13:44:13.349Z,8.15
2023-12-05T13:46:41.644Z,8.06
2023-12-05T13:49:10.210Z,8.08
2023-12-05T13:51:38.428Z,8.14
2023-12-05T13:54:06.697Z,8.17
2023-12-05T13:56:34.914Z,8.22
2023-12-05T13:59:03.075Z,8.31
2023-12-05T14:01:31.195Z,8.38
2023-12-05T14:03:59.312Z,8.32
2023-12-05T14:06:27.707Z,8.28
2023-12-05T14:08:55.866Z,8.13
2023-12-05T14:11:23.892Z,8.01
2023-12-05T14:13:52.047Z,7.87
2023-12-05T14:16:20.213Z,7.69
2023-12-05T14:18:48.465Z,7.72
2023-12-05T14:21:16.490Z,7.63
2023-12-05T14:23:44.733Z,7.62
2023-12-05T14:26:12.825Z,7.60
2023-12-05T14:28:40.940Z,7.51
2023-12-05T14:31:09.140Z,7.63
2023-12-05T14:33:37.287Z,7.66
2023-12-05T14:36:05.970Z,7.60
2023-12-05T14:38:34.724Z,7.29
2023-12-05T14:41:03.258Z,7.16
2023-12-05T14:43:31.388Z,7.01
2023-12-05T14:46:00.440Z,6.79
2023-12-05T14:48:28.705Z,6.62
2023-12-05T14:50:56.747Z,6.29
2023-12-05T14:53:24.772Z,6.02
2023-12-05T14:55:55.197Z,5.97
2023-12-05T14:58:23.422Z,6.04
2023-12-05T15:00:53.297Z,5.98
2023-12-05T15:03:21.405Z,5.73
2023-12-05T15:05:49.761Z,5.67
2023-12-05T15:08:17.899Z,5.75
2023-12-05T15:10:46.724Z,5.73
2023-12-05T15:13:14.840Z,5.79
2023-12-05T15:15:43.407Z,5.83
2023-12-05T15:18:12.195Z,5.79
2023-12-05T15:20:40.708Z,5.73
2023-12-05T15:23:08.862Z,5.75
2023-12-05T15:25:37.336Z,5.74
2023-12-05T15:28:06.535Z,5.75
2023-12-05T15:30:34.679Z,5.66
2023-12-05T15:33:02.744Z,5.48
2023-12-05T15:35:31.066Z,5.31
2023-12-05T15:37:59.288Z,5.35
2023-12-05T15:40:27.562Z,5.48
2023-12-05T15:42:55.969Z,5.48
2023-12-05T15:45:24.178Z,5.70
2023-12-05T15:47:52.219Z,5.93
2023-12-05T15:50:20.548Z,6.15
2023-12-05T15:52:49.132Z,6.42
2023-12-05T15:55:17.508Z,6.46
2023-12-05T15:57:45.850Z,6.57
2023-12-05T16:00:14.289Z,6.64
2023-12-05T16:02:45.791Z,6.64
2023-12-05T16:05:14.294Z,6.59
2023-12-05T16:07:42.833Z,6.51
2023-12-05T16:10:12.106Z,6.53
2023-12-05T16:12:40.431Z,6.61
2023-12-05T16:15:09.237Z,6.67
2023-12-05T16:17:37.382Z,6.72
2023-12-05T16:20:05.723Z,6.91
2023-12-05T16:22:34.513Z,7.02
2023-12-05T16:25:04.137Z,7.00
2023-12-05T16:27:33.190Z,6.96
2023-12-05T16:30:02.301Z,6.87
2023-12-05T16:32:30.931Z,6.82
2023-12-05T16:34:59.064Z,6.71
2023-12-05T16:37:27.163Z,6.67
2023-12-05T16:39:55.326Z,6.71
2023-12-05T16:42:23.451Z,6.67
2023-12-05T16:44:51.630Z,6.66
2023-12-05T16:47:19.956Z,6.77
2023-12-05T16:49:48.303Z,6.75
2023-12-05T16:52:16.414Z,6.72
2023-12-05T16:54:44.722Z,6.53
2023-12-05T16:57:13.012Z,6.28
2023-12-05T16:59:41.168Z,6.19
2023-12-05T17:02:09.119Z,6.19
2023-12-05T17:04:37.588Z,6.32
2023-12-05T17:07:05.797Z,6.39
2023-12-05T17:09:34.257Z,6.39
2023-12-05T17:12:02.839Z,6.32
2023-12-05T17:14:33.528Z,6.29
2023-12-05T17:17:04.287Z,6.11
2023-12-05T17:19:32.869Z,6.05
2023-12-05T17:22:01.866Z,6.07
2023-12-05T17:24:30.103Z,6.07
2023-12-05T17:26:58.344Z,6.16
2023-12-05T17:29:26.483Z,6.18
2023-12-05T17:31:54.614Z,6.20
2023-12-05T17:34:22.926Z,6.28
2023-12-05T17:36:51.143Z,6.34
2023-12-05T17:39:20.085Z,6.37
2023-12-05T17:41:48.115Z,6.46
2023-12-05T17:44:16.290Z,6.55
2023-12-05T17:46:44.474Z,6.45
2023-12-05T17:49:12.674Z,6.45
2023-12-05T17:51:41.239Z,6.49
2023-12-05T17:54:09.550Z,6.50
2023-12-05T17:56:37.714Z,6.48
2023-12-05T17:59:05.897Z,6.41
2023-12-05T18:01:34.198Z,6.26
2023-12-05T18:04:02.609Z,6.18
2023-12-05T18:06:31.101Z,6.05
2023-12-05T18:08:59.103Z,6.03
2023-12-05T18:11:29.915Z,5.98
2023-12-05T18:13:58.013Z,5.93
2023-12-05T18:16:28.176Z,5.88
2023-12-05T18:18:56.418Z,5.93
2023-12-05T18:21:24.701Z,5.92
2023-12-05T18:23:53.892Z,5.89
2023-12-05T18:26:22.182Z,5.86
2023-12-05T18:28:50.459Z,5.77
2023-12-05T18:31:21.021Z,5.73
2023-12-05T18:33:49.644Z,5.76
2023-12-05T18:36:17.870Z,6.02
2023-12-05T18:38:46.003Z,6.18
2023-12-05T18:41:14.116Z,6.19
2023-12-05T18:43:42.582Z,6.08
2023-12-05T18:46:10.618Z,6.02
2023-12-05T18:48:38.803Z,6.14
2023-12-05T18:51:07.021Z,6.23
2023-12-05T18:53:35.206Z,6.28
2023-12-05T18:56:04.415Z,6.11
2023-12-05T18:58:32.799Z,5.98
2023-12-05T19:01:01.679Z,5.87
2023-12-05T19:03:29.990Z,5.79
2023-12-05T19:06:00.321Z,5.68
2023-12-05T19:08:29.689Z,5.59
2023-12-05T19:10:59.942Z,5.54
2023-12-05T19:13:28.062Z,5.66
2023-12-05T19:15:56.088Z,5.76
2023-12-05T19:18:24.217Z,5.82
2023-12-05T19:20:52.680Z,5.81
2023-12-05T19:23:22.298Z,5.79
2023-12-05T19:25:50.837Z,5.81
2023-12-05T19:28:21.114Z,5.88
2023-12-05T19:30:49.459Z,5.92
2023-12-05T19:33:17.713Z,5.95
2023-12-05T19:35:47.726Z,5.89
2023-12-05T19:38:16.114Z,5.95
2023-12-05T19:40:44.508Z,5.96
2023-12-05T19:43:13.050Z,5.94
2023-12-05T19:45:41.546Z,5.98
2023-12-05T19:48:11.652Z,5.77
2023-12-05T19:50:41.605Z,5.61
2023-12-05T19:53:09.598Z,5.69
2023-12-05T19:55:38.502Z,5.75
2023-12-05T19:58:06.720Z,5.61
2023-12-05T20:00:36.147Z,5.64
2023-12-05T20:03:06.875Z,5.78
2023-12-05T20:05:35.075Z,5.77
2023-12-05T20:08:04.641Z,5.72
2023-12-05T20:10:34.239Z,5.80
2023-12-05T20:13:02.566Z,5.94
2023-12-05T20:15:31.767Z,6.07
2023-12-05T20:18:00.261Z,6.25
2023-12-05T20:20:28.513Z,6.38
2023-12-05T20:22:56.670Z,6.41
2023-12-05T20:25:25.387Z,6.48
2023-12-05T20:27:53.540Z,6.51
2023-12-05T20:30:21.961Z,6.57
2023-12-05T20:32:50.042Z,6.45
2023-12-05T20:35:18.710Z,6.19
2023-12-05T20:37:46.839Z,6.14
2023-12-05T20:40:15.059Z,6.15
2023-12-05T20:42:43.678Z,6.33
2023-12-05T20:45:11.911Z,6.44
2023-12-05T20:47:40.229Z,6.53
2023-12-05T20:50:08.857Z,6.63
2023-12-05T20:52:36.966Z,6.74
2023-12-05T20:55:08.943Z,6.77
2023-12-05T20:57:37.341Z,6.75
2023-12-05T21:00:06.473Z,6.55
2023-12-05T21:02:34.954Z,6.20
2023-12-05T21:05:04.619Z,5.77
2023-12-05T21:07:33.703Z,5.72
2023-12-05T21:10:02.142Z,5.62
2023-12-05T21:12:30.833Z,5.44
2023-12-05T21:14:58.947Z,5.44
2023-12-05T21:17:29.410Z,5.26
2023-12-05T21:19:58.219Z,5.13
2023-12-05T21:22:26.239Z,5.11
2023-12-05T21:24:54.655Z,5.10
2023-12-05T21:27:22.948Z,5.15
2023-12-05T21:29:52.371Z,5.12
2023-12-05T21:32:21.229Z,4.87
2023-12-05T21:34:49.324Z,4.78
2023-12-05T21:37:17.966Z,4.59
2023-12-05T21:39:46.291Z,4.37
2023-12-05T21:42:14.276Z,4.43
2023-12-05T21:44:42.695Z,4.64
2023-12-05T21:47:11.429Z,4.67
2023-12-05T21:49:39.830Z,4.92
2023-12-05T21:52:08.231Z,5.07
2023-12-05T21:54:36.309Z,4.78
2023-12-05T21:57:04.535Z,4.63
2023-12-05T21:59:32.600Z,4.56
2023-12-05T22:02:00.657Z,4.67
2023-12-05T22:04:33.757Z,4.78
2023-12-05T22:07:02.058Z,4.89
2023-12-05T22:09:30.257Z,5.01
2023-12-05T22:11:58.586Z,5.11
2023-12-05T22:14:26.654Z,5.19
2023-12-05T22:16:54.974Z,5.30
2023-12-05T22:19:23.325Z,5.39
2023-12-05T22:21:52.031Z,5.44
2023-12-05T22:24:29.600Z,5.53
2023-12-05T22:27:00.895Z,5.44
2023-12-05T22:29:29.357Z,5.17
2023-12-05T22:31:58.629Z,4.95
2023-12-05T22:34:26.942Z,4.84
2023-12-05T22:36:55.355Z,4.47
2023-12-05T22:39:24.095Z,4.13
2023-12-05T22:41:52.505Z,3.99
2023-12-05T22:44:20.587Z,4.04
2023-12-05T22:46:48.650Z,4.19
2023-12-05T22:49:16.760Z,4.34
2023-12-05T22:51:45.594Z,4.40
2023-12-05T22:54:14.381Z,4.32
2023-12-05T22:56:42.830Z,4.31
2023-12-05T22:59:10.883Z,4.40
2023-12-05T23:01:38.841Z,4.39
2023-12-05T23:04:06.992Z,4.62
2023-12-05T23:06:34.985Z,4.78
2023-12-05T23:09:03.212Z,4.72
2023-12-05T23:11:31.270Z,4.76
2023-12-05T23:13:59.370Z,4.91
2023-12-05T23:16:27.509Z,5.09
2023-12-05T23:18:55.748Z,5.46
2023-12-05T23:21:23.824Z,5.71
2023-12-05T23:23:52.242Z,5.84
2023-12-05T23:26:20.259Z,5.92
2023-12-05T23:28:49.427Z,5.92
2023-12-05T23:31:17.584Z,5.88
2023-12-05T23:33:45.820Z,5.78
2023-12-05T23:36:15.084Z,5.49
2023-12-05T23:38:43.142Z,5.20
2023-12-05T23:41:12.700Z,4.66
2023-12-05T23:43:40.786Z,4.43
2023-12-05T23:46:08.976Z,4.15
2023-12-05T23:48:37.454Z,3.91
2023-12-05T23:51:05.897Z,4.04
2023-12-05T23:53:33.948Z,3.91
2023-12-05T23:56:01.980Z,4.13
2023-12-05T23:58:30.050Z,4.49
